Taizz, Yemen
Current Conditions -  °F | °C
As of 1:00 AM on Wednesday 28 Jan 2015 (Local Time) from OYTZ Reporting Station
Broken Clouds Broken Clouds  
Wind Chill: 59°   Ceiling: 1500
Heat Index: 59°   Visibility: 4mi
Dew Point: 57°   Wind: 3mph
Humidity: 94%   Direction: 150°SSE
Pressure: 30.15"   Gusts: NA
Location:  13.6°N, 44.04°E
Report Text: OYTZ 272200Z 15003KT 6000 BKN015 15/14 Q1021
Loading
Personal Weather Stations






























Interactive Weather Map New forecast layout! Learn more

10-Day Weather Forecast

Advertisements
Track Severe Weather on mobile